createdAt,value
2023-01-17T00:02:19.443Z,4.21
2023-01-17T00:06:40.592Z,4.21
2023-01-17T00:10:43.600Z,4.20
2023-01-17T00:14:48.194Z,4.23
2023-01-17T00:19:05.001Z,4.19
2023-01-17T00:23:26.804Z,4.24
2023-01-17T00:27:28.607Z,4.24
2023-01-17T00:31:31.763Z,4.22
2023-01-17T00:35:34.339Z,4.20
2023-01-17T00:39:36.279Z,4.15
2023-01-17T00:43:57.834Z,4.11
2023-01-17T00:48:19.969Z,4.10
2023-01-17T00:52:41.705Z,3.93
2023-01-17T00:57:03.231Z,3.94
2023-01-17T01:01:26.501Z,3.92
2023-01-17T01:05:49.829Z,3.91
2023-01-17T01:10:10.430Z,3.88
2023-01-17T01:14:31.112Z,3.86
2023-01-17T01:18:52.434Z,3.84
2023-01-17T01:23:14.342Z,3.82
2023-01-17T01:27:35.057Z,3.84
2023-01-17T01:31:55.389Z,3.75
2023-01-17T01:35:58.468Z,3.71
2023-01-17T01:40:03.375Z,3.62
2023-01-17T01:44:27.080Z,3.60
2023-01-17T01:48:36.156Z,3.50
2023-01-17T01:52:45.300Z,3.47
2023-01-17T01:56:51.730Z,3.46
2023-01-17T02:00:55.111Z,3.42
2023-01-17T02:05:01.928Z,3.43
2023-01-17T02:09:09.506Z,3.41
2023-01-17T02:13:17.331Z,3.42
2023-01-17T02:17:32.948Z,3.44
2023-01-17T02:21:45.679Z,3.41
2023-01-17T02:26:25.533Z,3.39
2023-01-17T02:30:34.315Z,3.25
2023-01-17T02:34:47.103Z,3.11
2023-01-17T02:38:57.391Z,2.92
2023-01-17T02:43:05.547Z,2.71
2023-01-17T02:47:23.253Z,2.57
2023-01-17T02:51:48.913Z,2.41
2023-01-17T02:55:59.793Z,2.35
2023-01-17T03:00:05.719Z,2.31
2023-01-17T03:04:16.157Z,2.23
2023-01-17T03:08:21.591Z,2.16
2023-01-17T03:12:28.727Z,2.17
2023-01-17T03:16:34.104Z,2.20
2023-01-17T03:20:38.869Z,2.16
2023-01-17T03:24:42.103Z,2.20
2023-01-17T03:28:45.067Z,2.22
2023-01-17T03:32:48.202Z,2.27
2023-01-17T03:36:54.347Z,2.31
2023-01-17T03:40:57.986Z,2.36
2023-01-17T03:45:00.856Z,2.45
2023-01-17T03:49:03.864Z,2.52
2023-01-17T03:53:08.221Z,2.59
2023-01-17T03:57:11.143Z,2.60
2023-01-17T04:01:14.642Z,2.63
2023-01-17T04:05:18.046Z,2.60
2023-01-17T04:09:22.469Z,2.59
2023-01-17T04:13:25.544Z,2.54
2023-01-17T04:17:28.825Z,2.44
2023-01-17T04:21:31.829Z,2.35
2023-01-17T04:25:36.341Z,2.38
2023-01-17T04:29:39.320Z,2.39
2023-01-17T04:33:43.952Z,2.41
2023-01-17T04:37:46.897Z,2.47
2023-01-17T04:41:51.560Z,2.53
2023-01-17T04:45:56.512Z,2.58
2023-01-17T04:49:59.532Z,2.62
2023-01-17T04:54:02.615Z,2.67
2023-01-17T04:58:06.925Z,2.68
2023-01-17T05:02:10.046Z,2.71
2023-01-17T05:06:13.063Z,2.70
2023-01-17T05:10:16.132Z,2.63
2023-01-17T05:14:20.717Z,2.58
2023-01-17T05:18:23.758Z,2.52
2023-01-17T05:22:26.974Z,2.47
2023-01-17T05:26:31.404Z,2.42
2023-01-17T05:30:35.749Z,2.38
2023-01-17T05:34:38.648Z,2.33
2023-01-17T05:38:41.681Z,2.28
2023-01-17T05:42:46.982Z,2.24
2023-01-17T05:46:51.472Z,2.32
2023-01-17T05:50:55.283Z,2.27
2023-01-17T05:54:58.203Z,2.23
2023-01-17T05:59:01.261Z,2.20
2023-01-17T06:03:05.879Z,2.16
2023-01-17T06:07:08.685Z,2.13
2023-01-17T06:11:11.959Z,2.12
2023-01-17T06:15:17.581Z,2.15
2023-01-17T06:19:21.901Z,2.16
2023-01-17T06:23:25.982Z,2.13
2023-01-17T06:27:29.170Z,2.11
2023-01-17T06:31:32.255Z,2.08
2023-01-17T06:35:38.254Z,2.04
2023-01-17T06:39:40.991Z,1.94
2023-01-17T06:43:44.046Z,1.89
2023-01-17T06:47:47.015Z,1.85
2023-01-17T06:51:51.415Z,1.78
2023-01-17T06:55:56.844Z,1.74
2023-01-17T06:59:59.696Z,1.69
2023-01-17T07:04:02.689Z,1.67
2023-01-17T07:08:07.125Z,1.63
2023-01-17T07:12:10.299Z,1.64
2023-01-17T07:16:14.563Z,1.60
2023-01-17T07:20:17.814Z,1.56
2023-01-17T07:24:22.782Z,1.57
2023-01-17T07:28:26.931Z,1.52
2023-01-17T07:32:29.861Z,1.51
2023-01-17T07:36:33.175Z,1.47
2023-01-17T07:40:42.049Z,1.49
2023-01-17T07:44:45.518Z,1.51
2023-01-17T07:48:48.551Z,1.51
2023-01-17T07:52:51.593Z,1.49
2023-01-17T07:56:55.924Z,1.48
2023-01-17T08:01:03.580Z,1.49
2023-01-17T08:05:07.063Z,1.50
2023-01-17T08:09:09.961Z,1.51
2023-01-17T08:13:14.407Z,1.44
2023-01-17T08:17:20.313Z,1.44
2023-01-17T08:21:23.958Z,1.45
2023-01-17T08:25:27.360Z,1.43
2023-01-17T08:29:31.888Z,1.42
2023-01-17T08:33:35.045Z,1.47
2023-01-17T08:37:39.084Z,1.49
2023-01-17T08:41:42.309Z,1.51
2023-01-17T08:45:48.271Z,1.52
2023-01-17T08:49:52.540Z,1.53
2023-01-17T08:53:57.051Z,1.60
2023-01-17T08:58:00.182Z,1.60
2023-01-17T09:02:14.997Z,1.64
2023-01-17T09:06:18.655Z,1.64
2023-01-17T09:10:23.257Z,1.69
2023-01-17T09:14:26.135Z,1.66
2023-01-17T09:18:31.574Z,1.65
2023-01-17T09:22:36.051Z,1.66
2023-01-17T09:26:39.471Z,1.71
2023-01-17T09:30:42.499Z,1.79
2023-01-17T09:34:47.933Z,1.83
2023-01-17T09:38:51.072Z,1.88
2023-01-17T09:43:01.284Z,1.89
2023-01-17T09:47:12.213Z,1.94
2023-01-17T09:51:22.374Z,1.94
2023-01-17T09:55:25.416Z,2.02
2023-01-17T09:59:35.865Z,2.09
2023-01-17T10:03:46.160Z,2.12
2023-01-17T10:08:04.823Z,2.09
2023-01-17T10:12:21.633Z,2.17
2023-01-17T10:16:40.426Z,2.22
2023-01-17T10:20:53.120Z,2.29
2023-01-17T10:25:24.298Z,2.30
2023-01-17T10:29:32.609Z,2.34
2023-01-17T10:33:42.312Z,2.34
2023-01-17T10:37:45.768Z,2.36
2023-01-17T10:41:58.990Z,2.28
2023-01-17T10:46:03.335Z,2.24
2023-01-17T10:50:07.104Z,2.25
2023-01-17T10:54:20.398Z,2.31
2023-01-17T10:58:26.887Z,2.35
2023-01-17T11:02:33.853Z,2.36
2023-01-17T11:06:49.680Z,2.42
2023-01-17T11:11:05.105Z,2.43
2023-01-17T11:15:25.752Z,2.47
2023-01-17T11:19:32.200Z,2.51
2023-01-17T11:23:35.083Z,2.57
2023-01-17T11:27:41.844Z,2.64
2023-01-17T11:31:46.396Z,2.68
2023-01-17T11:35:49.236Z,2.76
2023-01-17T11:39:52.238Z,2.81
2023-01-17T11:43:57.491Z,2.85
2023-01-17T11:48:24.718Z,2.91
2023-01-17T11:52:37.482Z,2.96
2023-01-17T11:56:44.130Z,3.07
2023-01-17T12:00:53.049Z,3.09
2023-01-17T12:05:04.660Z,3.09
2023-01-17T12:09:23.009Z,3.10
2023-01-17T12:13:57.644Z,3.16
2023-01-17T12:18:20.219Z,3.13
2023-01-17T12:22:37.173Z,3.17
2023-01-17T12:26:46.709Z,3.19
2023-01-17T12:31:07.905Z,3.22
2023-01-17T12:35:16.275Z,3.24
2023-01-17T12:39:26.073Z,3.28
2023-01-17T12:43:33.464Z,3.33
2023-01-17T12:47:42.865Z,3.37
2023-01-17T12:51:50.164Z,3.39
2023-01-17T12:56:01.042Z,3.37
2023-01-17T13:00:07.939Z,3.38
2023-01-17T13:04:19.732Z,3.42
2023-01-17T13:08:28.350Z,3.46
2023-01-17T13:12:38.056Z,3.46
2023-01-17T13:16:45.373Z,3.48
2023-01-17T13:21:06.030Z,3.53
2023-01-17T13:25:25.141Z,3.55
2023-01-17T13:29:37.975Z,3.62
2023-01-17T13:33:59.055Z,3.63
2023-01-17T13:38:23.960Z,3.64
2023-01-17T13:42:36.855Z,3.66
2023-01-17T13:51:11.538Z,3.68
2023-01-17T13:55:45.560Z,3.68
2023-01-17T13:59:48.692Z,3.68
2023-01-17T14:04:07.891Z,3.69
2023-01-17T14:08:18.114Z,3.72
2023-01-17T14:12:39.917Z,3.78
2023-01-17T14:16:46.184Z,3.78
2023-01-17T14:21:05.401Z,3.72
2023-01-17T14:25:17.541Z,3.68
2023-01-17T14:29:58.932Z,3.66
2023-01-17T14:34:13.209Z,3.63
2023-01-17T14:38:22.829Z,3.65
2023-01-17T14:42:31.651Z,3.62
2023-01-17T14:46:36.021Z,3.65
2023-01-17T14:50:40.337Z,3.66
2023-01-17T14:54:49.370Z,3.67
2023-01-17T14:59:16.851Z,3.68
2023-01-17T15:03:20.023Z,3.65
2023-01-17T15:07:25.859Z,3.63
2023-01-17T15:11:30.681Z,3.58
2023-01-17T15:15:38.308Z,3.52
2023-01-17T15:19:45.590Z,3.48
2023-01-17T15:23:51.404Z,3.44
2023-01-17T15:27:54.351Z,3.40
2023-01-17T15:32:00.348Z,3.33
2023-01-17T15:36:05.727Z,3.32
2023-01-17T15:40:18.599Z,3.29
2023-01-17T15:44:46.446Z,3.24
2023-01-17T15:48:53.465Z,3.16
2023-01-17T15:53:00.292Z,3.05
2023-01-17T15:57:17.940Z,2.98
2023-01-17T16:01:26.654Z,2.91
2023-01-17T16:05:44.239Z,2.84
2023-01-17T16:09:47.803Z,2.77
2023-01-17T16:13:50.801Z,2.70
2023-01-17T16:17:58.706Z,2.64
2023-01-17T16:22:03.974Z,2.56
2023-01-17T16:26:10.888Z,2.45
2023-01-17T16:30:16.167Z,2.37
2023-01-17T16:34:20.277Z,2.26
2023-01-17T16:38:24.685Z,2.15
2023-01-17T16:42:29.524Z,2.05
2023-01-17T16:46:34.891Z,1.97
2023-01-17T16:50:41.836Z,1.89
2023-01-17T16:54:46.477Z,1.85
2023-01-17T16:58:53.541Z,1.79
2023-01-17T17:02:56.664Z,1.72
2023-01-17T17:07:01.438Z,1.63
2023-01-17T17:11:14.595Z,1.51
2023-01-17T17:15:18.369Z,1.42
2023-01-17T17:19:21.515Z,1.27
2023-01-17T17:23:24.869Z,1.21
2023-01-17T17:27:29.192Z,1.17
2023-01-17T17:31:33.259Z,1.17
2023-01-17T17:35:36.829Z,1.17
2023-01-17T17:39:40.017Z,1.15
2023-01-17T17:43:44.163Z,1.15
2023-01-17T17:47:46.920Z,1.15
2023-01-17T17:51:49.939Z,1.14
2023-01-17T17:55:53.760Z,1.06
2023-01-17T17:59:59.721Z,1.01
2023-01-17T18:04:04.187Z,0.97
2023-01-17T18:08:07.288Z,0.95
2023-01-17T18:12:10.243Z,0.92
2023-01-17T18:16:17.052Z,0.91
2023-01-17T18:20:20.301Z,0.87
2023-01-17T18:24:24.808Z,0.84
2023-01-17T18:28:28.269Z,0.79
2023-01-17T18:32:59.910Z,0.74
2023-01-17T18:37:02.914Z,0.70
2023-01-17T18:41:07.177Z,0.64
2023-01-17T18:45:11.359Z,0.58
2023-01-17T18:49:19.003Z,0.52
2023-01-17T18:53:21.984Z,0.49
2023-01-17T18:57:25.034Z,0.45
2023-01-17T19:01:30.224Z,0.42
2023-01-17T19:05:36.604Z,0.38
2023-01-17T19:09:40.082Z,0.27
2023-01-17T19:13:44.022Z,0.22
2023-01-17T19:17:47.941Z,0.21
2023-01-17T19:21:53.770Z,0.16
2023-01-17T19:25:58.574Z,0.15
2023-01-17T19:30:02.538Z,0.15
2023-01-17T19:34:15.868Z,0.11
2023-01-17T19:38:20.290Z,0.10
2023-01-17T19:42:23.542Z,0.12
2023-01-17T19:46:27.577Z,0.10
2023-01-17T19:50:30.677Z,0.08
2023-01-17T19:54:35.058Z,0.04
2023-01-17T19:58:39.673Z,-0.01
2023-01-17T20:02:43.495Z,-0.06
2023-01-17T20:06:47.400Z,-0.11
2023-01-17T20:10:53.033Z,-0.14
2023-01-17T20:14:56.025Z,-0.14
2023-01-17T20:19:00.307Z,-0.17
2023-01-17T20:23:05.596Z,-0.17
2023-01-17T20:27:10.791Z,-0.17
2023-01-17T20:31:15.641Z,-0.18
2023-01-17T20:35:28.515Z,-0.21
2023-01-17T20:39:32.709Z,-0.26
2023-01-17T20:43:37.684Z,-0.31
2023-01-17T20:47:41.235Z,-0.28
2023-01-17T20:51:47.231Z,-0.27
2023-01-17T20:55:57.208Z,-0.27
2023-01-17T21:00:01.379Z,-0.28
2023-01-17T21:04:05.393Z,-0.30
2023-01-17T21:08:09.296Z,-0.34
2023-01-17T21:12:13.311Z,-0.37
2023-01-17T21:16:20.472Z,-0.43
2023-01-17T21:20:27.273Z,-0.45
2023-01-17T21:24:30.239Z,-0.49
2023-01-17T21:28:36.744Z,-0.51
2023-01-17T21:32:41.194Z,-0.55
2023-01-17T21:36:44.540Z,-0.60
2023-01-17T21:40:47.471Z,-0.63
2023-01-17T21:44:50.914Z,-0.67
2023-01-17T21:48:57.740Z,-0.68
2023-01-17T21:53:00.793Z,-0.68
2023-01-17T21:57:21.282Z,-0.70
2023-01-17T22:01:25.851Z,-0.76
2023-01-17T22:05:30.725Z,-0.82
2023-01-17T22:09:33.645Z,-0.90
2023-01-17T22:13:37.296Z,-0.96
2023-01-17T22:17:42.295Z,-0.99
2023-01-17T22:21:47.031Z,-0.98
2023-01-17T22:25:50.217Z,-0.96
2023-01-17T22:29:53.372Z,-1.00
2023-01-17T22:33:58.043Z,-1.03
2023-01-17T22:38:02.454Z,-1.00
2023-01-17T22:42:06.274Z,-1.02
2023-01-17T22:46:10.860Z,-1.02
2023-01-17T22:50:14.100Z,-1.01
2023-01-17T22:54:19.409Z,-0.99
2023-01-17T22:58:22.993Z,-0.99
2023-01-17T23:02:27.993Z,-1.00
2023-01-17T23:06:33.284Z,-1.00
2023-01-17T23:10:55.204Z,-1.00
2023-01-17T23:15:15.816Z,-1.03
2023-01-17T23:19:24.815Z,-1.08
2023-01-17T23:23:27.725Z,-1.09
2023-01-17T23:27:51.312Z,-1.11
2023-01-17T23:31:54.289Z,-1.13
2023-01-17T23:35:57.315Z,-1.14
2023-01-17T23:40:00.550Z,-1.15
2023-01-17T23:44:05.052Z,-1.16
2023-01-17T23:48:10.606Z,-1.17
2023-01-17T23:52:14.229Z,-1.17
2023-01-17T23:56:21.259Z,-1.18
